sensor_id;sensor_type;location;lat;lon;timestamp;P1;durP1;ratioP1;P2;durP2;ratioP2
71606;SDS011;60641;53.556;9.914;2022-07-23T00:01:33;1.80;;;0.60;;
71606;SDS011;60641;53.556;9.914;2022-07-23T00:04:00;3.30;;;0.80;;
71606;SDS011;60641;53.556;9.914;2022-07-23T00:06:26;2.50;;;0.70;;
71606;SDS011;60641;53.556;9.914;2022-07-23T00:08:53;2.90;;;0.60;;
71606;SDS011;60641;53.556;9.914;2022-07-23T00:11:19;5.90;;;1.00;;
71606;SDS011;60641;53.556;9.914;2022-07-23T00:13:48;2.60;;;0.80;;
71606;SDS011;60641;53.556;9.914;2022-07-23T00:16:14;7.00;;;0.90;;
71606;SDS011;60641;53.556;9.914;2022-07-23T00:18:41;4.60;;;1.00;;
71606;SDS011;60641;53.556;9.914;2022-07-23T00:21:07;6.10;;;0.90;;
71606;SDS011;60641;53.556;9.914;2022-07-23T00:23:34;2.90;;;0.80;;
71606;SDS011;60641;53.556;9.914;2022-07-23T00:26:00;4.50;;;0.90;;
71606;SDS011;60641;53.556;9.914;2022-07-23T00:28:26;6.10;;;0.90;;
71606;SDS011;60641;53.556;9.914;2022-07-23T00:30:53;4.50;;;0.90;;
71606;SDS011;60641;53.556;9.914;2022-07-23T00:33:20;4.20;;;0.90;;
71606;SDS011;60641;53.556;9.914;2022-07-23T00:35:46;5.20;;;0.80;;
71606;SDS011;60641;53.556;9.914;2022-07-23T00:38:12;5.90;;;0.90;;
71606;SDS011;60641;53.556;9.914;2022-07-23T00:40:39;3.90;;;0.90;;
71606;SDS011;60641;53.556;9.914;2022-07-23T00:43:06;6.70;;;1.00;;
71606;SDS011;60641;53.556;9.914;2022-07-23T00:45:33;4.00;;;0.70;;
71606;SDS011;60641;53.556;9.914;2022-07-23T00:47:59;4.60;;;0.90;;
71606;SDS011;60641;53.556;9.914;2022-07-23T00:50:26;6.20;;;0.90;;
71606;SDS011;60641;53.556;9.914;2022-07-23T00:52:52;5.10;;;0.80;;
71606;SDS011;60641;53.556;9.914;2022-07-23T00:55:19;5.30;;;1.20;;
71606;SDS011;60641;53.556;9.914;2022-07-23T00:57:46;6.20;;;1.30;;
71606;SDS011;60641;53.556;9.914;2022-07-23T01:00:13;5.30;;;0.80;;
71606;SDS011;60641;53.556;9.914;2022-07-23T01:02:40;3.50;;;0.70;;
71606;SDS011;60641;53.556;9.914;2022-07-23T01:05:07;4.00;;;0.80;;
71606;SDS011;60641;53.556;9.914;2022-07-23T01:07:34;4.30;;;0.60;;
71606;SDS011;60641;53.556;9.914;2022-07-23T01:10:00;4.70;;;1.10;;
71606;SDS011;60641;53.556;9.914;2022-07-23T01:12:28;6.50;;;1.00;;
71606;SDS011;60641;53.556;9.914;2022-07-23T01:14:55;4.80;;;0.70;;
71606;SDS011;60641;53.556;9.914;2022-07-23T01:17:25;4.80;;;0.80;;
71606;SDS011;60641;53.556;9.914;2022-07-23T01:19:52;3.90;;;0.60;;
71606;SDS011;60641;53.556;9.914;2022-07-23T01:22:19;3.10;;;0.80;;
71606;SDS011;60641;53.556;9.914;2022-07-23T01:24:46;3.00;;;0.80;;
71606;SDS011;60641;53.556;9.914;2022-07-23T01:27:12;4.40;;;0.80;;
71606;SDS011;60641;53.556;9.914;2022-07-23T01:29:39;4.10;;;0.70;;
71606;SDS011;60641;53.556;9.914;2022-07-23T01:32:05;5.00;;;0.70;;
71606;SDS011;60641;53.556;9.914;2022-07-23T01:34:32;3.90;;;0.80;;
71606;SDS011;60641;53.556;9.914;2022-07-23T01:36:58;5.00;;;0.70;;
71606;SDS011;60641;53.556;9.914;2022-07-23T01:39:24;2.60;;;0.70;;
71606;SDS011;60641;53.556;9.914;2022-07-23T01:41:51;2.70;;;0.70;;
71606;SDS011;60641;53.556;9.914;2022-07-23T01:44:17;3.40;;;0.70;;
71606;SDS011;60641;53.556;9.914;2022-07-23T01:46:43;3.10;;;0.80;;
71606;SDS011;60641;53.556;9.914;2022-07-23T01:49:10;4.50;;;1.00;;
71606;SDS011;60641;53.556;9.914;2022-07-23T01:51:36;3.40;;;0.70;;
71606;SDS011;60641;53.556;9.914;2022-07-23T01:54:02;4.10;;;0.70;;
71606;SDS011;60641;53.556;9.914;2022-07-23T01:56:29;6.10;;;0.70;;
71606;SDS011;60641;53.556;9.914;2022-07-23T01:58:56;1.80;;;0.50;;
71606;SDS011;60641;53.556;9.914;2022-07-23T02:01:22;4.50;;;0.60;;
71606;SDS011;60641;53.556;9.914;2022-07-23T02:03:48;4.50;;;0.80;;
71606;SDS011;60641;53.556;9.914;2022-07-23T02:06:15;3.80;;;0.60;;
71606;SDS011;60641;53.556;9.914;2022-07-23T02:08:41;4.10;;;0.70;;
71606;SDS011;60641;53.556;9.914;2022-07-23T02:11:07;3.20;;;0.70;;
71606;SDS011;60641;53.556;9.914;2022-07-23T02:13:34;4.60;;;0.70;;
71606;SDS011;60641;53.556;9.914;2022-07-23T02:16:00;2.60;;;0.80;;
71606;SDS011;60641;53.556;9.914;2022-07-23T02:18:27;5.10;;;0.70;;
71606;SDS011;60641;53.556;9.914;2022-07-23T02:20:53;4.70;;;0.70;;
71606;SDS011;60641;53.556;9.914;2022-07-23T02:23:19;5.70;;;0.90;;
71606;SDS011;60641;53.556;9.914;2022-07-23T02:25:46;4.50;;;0.80;;
71606;SDS011;60641;53.556;9.914;2022-07-23T02:28:12;2.90;;;0.60;;
71606;SDS011;60641;53.556;9.914;2022-07-23T02:30:38;4.60;;;0.60;;
71606;SDS011;60641;53.556;9.914;2022-07-23T02:33:05;3.00;;;0.80;;
71606;SDS011;60641;53.556;9.914;2022-07-23T02:35:32;4.70;;;0.80;;
71606;SDS011;60641;53.556;9.914;2022-07-23T02:37:59;3.50;;;0.80;;
71606;SDS011;60641;53.556;9.914;2022-07-23T02:40:25;3.90;;;1.00;;
71606;SDS011;60641;53.556;9.914;2022-07-23T02:42:51;3.00;;;0.80;;
71606;SDS011;60641;53.556;9.914;2022-07-23T02:45:18;5.90;;;0.80;;
71606;SDS011;60641;53.556;9.914;2022-07-23T02:47:44;3.30;;;0.70;;
71606;SDS011;60641;53.556;9.914;2022-07-23T02:50:10;2.70;;;0.70;;
71606;SDS011;60641;53.556;9.914;2022-07-23T02:52:38;4.20;;;0.70;;
71606;SDS011;60641;53.556;9.914;2022-07-23T02:55:05;5.00;;;0.90;;
71606;SDS011;60641;53.556;9.914;2022-07-23T02:57:32;7.40;;;0.90;;
71606;SDS011;60641;53.556;9.914;2022-07-23T02:59:58;4.20;;;0.70;;
71606;SDS011;60641;53.556;9.914;2022-07-23T03:02:24;3.60;;;0.70;;
71606;SDS011;60641;53.556;9.914;2022-07-23T03:04:51;5.60;;;0.70;;
71606;SDS011;60641;53.556;9.914;2022-07-23T03:07:17;4.00;;;0.90;;
71606;SDS011;60641;53.556;9.914;2022-07-23T03:09:44;3.20;;;0.80;;
71606;SDS011;60641;53.556;9.914;2022-07-23T03:12:10;3.20;;;0.70;;
71606;SDS011;60641;53.556;9.914;2022-07-23T03:14:37;5.60;;;0.90;;
71606;SDS011;60641;53.556;9.914;2022-07-23T03:17:03;5.80;;;0.80;;
71606;SDS011;60641;53.556;9.914;2022-07-23T03:19:29;2.20;;;0.70;;
71606;SDS011;60641;53.556;9.914;2022-07-23T03:21:56;5.50;;;1.10;;
71606;SDS011;60641;53.556;9.914;2022-07-23T03:24:22;9.00;;;1.20;;
71606;SDS011;60641;53.556;9.914;2022-07-23T03:27:08;6.60;;;0.90;;
71606;SDS011;60641;53.556;9.914;2022-07-23T03:29:35;5.30;;;1.00;;
71606;SDS011;60641;53.556;9.914;2022-07-23T03:32:03;6.10;;;0.70;;
71606;SDS011;60641;53.556;9.914;2022-07-23T03:34:30;5.00;;;1.00;;
71606;SDS011;60641;53.556;9.914;2022-07-23T03:36:56;2.30;;;0.80;;
71606;SDS011;60641;53.556;9.914;2022-07-23T03:39:22;4.40;;;0.90;;
71606;SDS011;60641;53.556;9.914;2022-07-23T03:41:49;5.10;;;0.90;;
71606;SDS011;60641;53.556;9.914;2022-07-23T03:44:15;5.30;;;0.90;;
71606;SDS011;60641;53.556;9.914;2022-07-23T03:46:41;5.00;;;1.00;;
71606;SDS011;60641;53.556;9.914;2022-07-23T03:49:08;3.10;;;0.80;;
71606;SDS011;60641;53.556;9.914;2022-07-23T03:51:34;4.80;;;0.70;;
71606;SDS011;60641;53.556;9.914;2022-07-23T03:54:00;5.50;;;1.10;;
71606;SDS011;60641;53.556;9.914;2022-07-23T03:56:27;3.30;;;1.00;;
71606;SDS011;60641;53.556;9.914;2022-07-23T03:58:53;5.50;;;1.00;;
71606;SDS011;60641;53.556;9.914;2022-07-23T04:01:20;3.50;;;0.80;;
71606;SDS011;60641;53.556;9.914;2022-07-23T04:03:46;5.60;;;0.90;;
71606;SDS011;60641;53.556;9.914;2022-07-23T04:06:12;7.20;;;1.20;;
71606;SDS011;60641;53.556;9.914;2022-07-23T04:08:39;5.90;;;1.10;;
71606;SDS011;60641;53.556;9.914;2022-07-23T04:11:06;5.80;;;1.30;;
71606;SDS011;60641;53.556;9.914;2022-07-23T04:13:32;9.90;;;1.10;;
71606;SDS011;60641;53.556;9.914;2022-07-23T04:15:58;9.70;;;1.20;;
71606;SDS011;60641;53.556;9.914;2022-07-23T04:18:25;3.90;;;1.00;;
71606;SDS011;60641;53.556;9.914;2022-07-23T04:20:51;5.10;;;1.10;;
71606;SDS011;60641;53.556;9.914;2022-07-23T04:23:18;6.20;;;1.40;;
71606;SDS011;60641;53.556;9.914;2022-07-23T04:25:44;7.80;;;1.70;;
71606;SDS011;60641;53.556;9.914;2022-07-23T04:28:10;7.40;;;1.70;;
71606;SDS011;60641;53.556;9.914;2022-07-23T04:30:37;6.40;;;1.30;;
71606;SDS011;60641;53.556;9.914;2022-07-23T04:33:03;3.80;;;1.20;;
71606;SDS011;60641;53.556;9.914;2022-07-23T04:35:33;4.80;;;1.40;;
71606;SDS011;60641;53.556;9.914;2022-07-23T04:38:00;6.20;;;1.30;;
71606;SDS011;60641;53.556;9.914;2022-07-23T04:40:27;6.00;;;1.30;;
71606;SDS011;60641;53.556;9.914;2022-07-23T04:42:53;7.00;;;1.40;;
71606;SDS011;60641;53.556;9.914;2022-07-23T04:45:20;6.10;;;1.40;;
71606;SDS011;60641;53.556;9.914;2022-07-23T04:47:46;5.70;;;1.60;;
71606;SDS011;60641;53.556;9.914;2022-07-23T04:50:12;5.20;;;1.10;;
71606;SDS011;60641;53.556;9.914;2022-07-23T04:52:39;4.60;;;1.10;;
71606;SDS011;60641;53.556;9.914;2022-07-23T04:55:05;3.30;;;1.10;;
71606;SDS011;60641;53.556;9.914;2022-07-23T04:57:32;4.00;;;0.90;;
71606;SDS011;60641;53.556;9.914;2022-07-23T04:59:58;4.80;;;0.90;;
71606;SDS011;60641;53.556;9.914;2022-07-23T05:02:25;5.30;;;0.80;;
71606;SDS011;60641;53.556;9.914;2022-07-23T05:04:51;2.90;;;0.80;;
71606;SDS011;60641;53.556;9.914;2022-07-23T05:07:17;2.40;;;0.80;;
71606;SDS011;60641;53.556;9.914;2022-07-23T05:09:44;3.40;;;0.60;;
71606;SDS011;60641;53.556;9.914;2022-07-23T05:12:10;2.70;;;0.80;;
71606;SDS011;60641;53.556;9.914;2022-07-23T05:14:37;3.30;;;0.60;;
71606;SDS011;60641;53.556;9.914;2022-07-23T05:17:03;2.10;;;0.60;;
71606;SDS011;60641;53.556;9.914;2022-07-23T05:19:30;3.80;;;0.60;;
71606;SDS011;60641;53.556;9.914;2022-07-23T05:21:56;3.50;;;0.60;;
71606;SDS011;60641;53.556;9.914;2022-07-23T05:24:23;4.30;;;0.70;;
71606;SDS011;60641;53.556;9.914;2022-07-23T05:26:50;3.30;;;0.80;;
71606;SDS011;60641;53.556;9.914;2022-07-23T05:29:16;2.70;;;0.50;;
71606;SDS011;60641;53.556;9.914;2022-07-23T05:31:43;2.70;;;0.60;;
71606;SDS011;60641;53.556;9.914;2022-07-23T05:34:09;3.10;;;0.60;;
71606;SDS011;60641;53.556;9.914;2022-07-23T05:36:36;2.30;;;0.60;;
71606;SDS011;60641;53.556;9.914;2022-07-23T05:39:03;3.30;;;0.70;;
71606;SDS011;60641;53.556;9.914;2022-07-23T05:41:29;2.30;;;0.60;;
71606;SDS011;60641;53.556;9.914;2022-07-23T05:43:56;3.00;;;0.70;;
71606;SDS011;60641;53.556;9.914;2022-07-23T05:46:22;3.00;;;0.80;;
71606;SDS011;60641;53.556;9.914;2022-07-23T05:48:49;2.80;;;0.90;;
71606;SDS011;60641;53.556;9.914;2022-07-23T05:51:23;5.50;;;0.90;;
71606;SDS011;60641;53.556;9.914;2022-07-23T05:53:50;3.70;;;0.90;;
71606;SDS011;60641;53.556;9.914;2022-07-23T05:56:17;3.80;;;0.90;;
71606;SDS011;60641;53.556;9.914;2022-07-23T05:58:44;2.60;;;0.80;;
71606;SDS011;60641;53.556;9.914;2022-07-23T06:01:11;3.80;;;0.90;;
71606;SDS011;60641;53.556;9.914;2022-07-23T06:03:38;4.90;;;0.90;;
71606;SDS011;60641;53.556;9.914;2022-07-23T06:06:05;8.30;;;1.10;;
71606;SDS011;60641;53.556;9.914;2022-07-23T06:08:31;4.30;;;1.00;;
71606;SDS011;60641;53.556;9.914;2022-07-23T06:10:58;3.80;;;0.90;;
71606;SDS011;60641;53.556;9.914;2022-07-23T06:13:25;4.50;;;0.90;;
71606;SDS011;60641;53.556;9.914;2022-07-23T06:15:51;4.10;;;1.10;;
71606;SDS011;60641;53.556;9.914;2022-07-23T06:18:17;2.70;;;0.80;;
71606;SDS011;60641;53.556;9.914;2022-07-23T06:20:44;6.60;;;1.20;;
71606;SDS011;60641;53.556;9.914;2022-07-23T06:23:10;8.30;;;1.10;;
71606;SDS011;60641;53.556;9.914;2022-07-23T06:25:38;4.00;;;0.90;;
71606;SDS011;60641;53.556;9.914;2022-07-23T06:28:04;4.20;;;1.10;;
71606;SDS011;60641;53.556;9.914;2022-07-23T06:30:31;5.40;;;0.90;;
71606;SDS011;60641;53.556;9.914;2022-07-23T06:32:57;4.30;;;1.10;;
71606;SDS011;60641;53.556;9.914;2022-07-23T06:35:24;4.00;;;1.00;;
71606;SDS011;60641;53.556;9.914;2022-07-23T06:37:51;5.70;;;1.30;;
71606;SDS011;60641;53.556;9.914;2022-07-23T06:40:17;7.40;;;1.30;;
71606;SDS011;60641;53.556;9.914;2022-07-23T06:42:43;4.80;;;1.10;;
71606;SDS011;60641;53.556;9.914;2022-07-23T06:45:10;3.40;;;1.10;;
71606;SDS011;60641;53.556;9.914;2022-07-23T06:47:36;4.80;;;1.00;;
71606;SDS011;60641;53.556;9.914;2022-07-23T06:50:03;2.60;;;1.00;;
71606;SDS011;60641;53.556;9.914;2022-07-23T06:52:30;6.50;;;1.10;;
71606;SDS011;60641;53.556;9.914;2022-07-23T06:54:56;3.10;;;1.00;;
71606;SDS011;60641;53.556;9.914;2022-07-23T06:57:22;5.80;;;1.50;;
71606;SDS011;60641;53.556;9.914;2022-07-23T06:59:51;6.30;;;1.00;;
71606;SDS011;60641;53.556;9.914;2022-07-23T07:02:18;3.50;;;0.80;;
71606;SDS011;60641;53.556;9.914;2022-07-23T07:04:44;2.40;;;0.70;;
71606;SDS011;60641;53.556;9.914;2022-07-23T07:07:11;4.70;;;0.90;;
71606;SDS011;60641;53.556;9.914;2022-07-23T07:09:38;4.50;;;0.80;;
71606;SDS011;60641;53.556;9.914;2022-07-23T07:12:04;3.90;;;0.60;;
71606;SDS011;60641;53.556;9.914;2022-07-23T07:14:31;4.60;;;0.70;;
71606;SDS011;60641;53.556;9.914;2022-07-23T07:16:57;3.70;;;0.70;;
71606;SDS011;60641;53.556;9.914;2022-07-23T07:19:24;1.80;;;0.60;;
71606;SDS011;60641;53.556;9.914;2022-07-23T07:21:50;3.80;;;0.70;;
71606;SDS011;60641;53.556;9.914;2022-07-23T07:24:16;4.50;;;0.80;;
71606;SDS011;60641;53.556;9.914;2022-07-23T07:26:43;5.40;;;0.70;;
71606;SDS011;60641;53.556;9.914;2022-07-23T07:29:09;2.50;;;0.50;;
71606;SDS011;60641;53.556;9.914;2022-07-23T07:31:36;3.10;;;0.60;;
71606;SDS011;60641;53.556;9.914;2022-07-23T07:34:02;1.30;;;0.40;;
71606;SDS011;60641;53.556;9.914;2022-07-23T07:36:29;2.30;;;0.50;;
71606;SDS011;60641;53.556;9.914;2022-07-23T07:38:55;1.50;;;0.50;;
71606;SDS011;60641;53.556;9.914;2022-07-23T07:41:22;1.90;;;0.40;;
71606;SDS011;60641;53.556;9.914;2022-07-23T07:43:50;1.20;;;0.40;;
71606;SDS011;60641;53.556;9.914;2022-07-23T07:46:16;1.20;;;0.50;;
71606;SDS011;60641;53.556;9.914;2022-07-23T07:48:43;2.30;;;0.40;;
71606;SDS011;60641;53.556;9.914;2022-07-23T07:51:09;1.60;;;0.40;;
71606;SDS011;60641;53.556;9.914;2022-07-23T07:53:35;1.80;;;0.40;;
71606;SDS011;60641;53.556;9.914;2022-07-23T07:56:02;1.80;;;0.50;;
71606;SDS011;60641;53.556;9.914;2022-07-23T07:58:28;3.90;;;0.50;;
71606;SDS011;60641;53.556;9.914;2022-07-23T08:00:55;3.20;;;0.70;;
71606;SDS011;60641;53.556;9.914;2022-07-23T08:03:21;2.00;;;0.60;;
71606;SDS011;60641;53.556;9.914;2022-07-23T08:05:47;2.90;;;0.50;;
71606;SDS011;60641;53.556;9.914;2022-07-23T08:08:14;2.10;;;0.50;;
71606;SDS011;60641;53.556;9.914;2022-07-23T08:10:41;2.70;;;0.50;;
71606;SDS011;60641;53.556;9.914;2022-07-23T08:13:07;4.40;;;0.50;;
71606;SDS011;60641;53.556;9.914;2022-07-23T08:15:34;1.50;;;0.50;;
71606;SDS011;60641;53.556;9.914;2022-07-23T08:18:00;1.60;;;0.40;;
71606;SDS011;60641;53.556;9.914;2022-07-23T08:20:26;1.50;;;0.50;;
71606;SDS011;60641;53.556;9.914;2022-07-23T08:22:54;2.50;;;0.50;;
71606;SDS011;60641;53.556;9.914;2022-07-23T08:25:21;3.00;;;0.50;;
71606;SDS011;60641;53.556;9.914;2022-07-23T08:27:59;3.00;;;0.70;;
71606;SDS011;60641;53.556;9.914;2022-07-23T08:30:27;1.40;;;0.30;;
71606;SDS011;60641;53.556;9.914;2022-07-23T08:35:27;3.00;;;0.60;;
71606;SDS011;60641;53.556;9.914;2022-07-23T08:37:55;2.60;;;0.50;;
71606;SDS011;60641;53.556;9.914;2022-07-23T08:40:22;0.70;;;0.30;;
71606;SDS011;60641;53.556;9.914;2022-07-23T08:42:49;3.90;;;0.50;;
71606;SDS011;60641;53.556;9.914;2022-07-23T08:45:19;1.70;;;0.40;;
71606;SDS011;60641;53.556;9.914;2022-07-23T08:47:48;2.10;;;0.40;;
71606;SDS011;60641;53.556;9.914;2022-07-23T08:50:15;1.40;;;0.50;;
71606;SDS011;60641;53.556;9.914;2022-07-23T08:52:42;1.50;;;0.50;;
71606;SDS011;60641;53.556;9.914;2022-07-23T08:55:08;0.90;;;0.40;;
71606;SDS011;60641;53.556;9.914;2022-07-23T08:57:35;2.50;;;0.50;;
71606;SDS011;60641;53.556;9.914;2022-07-23T09:00:02;2.10;;;0.60;;
71606;SDS011;60641;53.556;9.914;2022-07-23T09:02:30;2.40;;;0.50;;
71606;SDS011;60641;53.556;9.914;2022-07-23T09:04:56;3.20;;;0.70;;
71606;SDS011;60641;53.556;9.914;2022-07-23T09:07:22;4.80;;;0.60;;
71606;SDS011;60641;53.556;9.914;2022-07-23T09:09:57;0.60;;;0.40;;
71606;SDS011;60641;53.556;9.914;2022-07-23T09:12:31;1.60;;;0.50;;
71606;SDS011;60641;53.556;9.914;2022-07-23T09:15:00;3.30;;;0.60;;
71606;SDS011;60641;53.556;9.914;2022-07-23T09:17:37;1.30;;;0.50;;
71606;SDS011;60641;53.556;9.914;2022-07-23T09:20:11;2.70;;;0.60;;
71606;SDS011;60641;53.556;9.914;2022-07-23T09:22:45;1.70;;;0.50;;
71606;SDS011;60641;53.556;9.914;2022-07-23T09:25:14;2.80;;;0.60;;
71606;SDS011;60641;53.556;9.914;2022-07-23T09:27:58;2.80;;;0.60;;
71606;SDS011;60641;53.556;9.914;2022-07-23T09:30:30;2.50;;;0.60;;
71606;SDS011;60641;53.556;9.914;2022-07-23T09:33:07;2.20;;;0.50;;
71606;SDS011;60641;53.556;9.914;2022-07-23T09:35:53;1.40;;;0.50;;
71606;SDS011;60641;53.556;9.914;2022-07-23T09:38:21;2.30;;;0.50;;
71606;SDS011;60641;53.556;9.914;2022-07-23T09:41:07;2.30;;;0.60;;
71606;SDS011;60641;53.556;9.914;2022-07-23T09:43:35;1.20;;;0.50;;
71606;SDS011;60641;53.556;9.914;2022-07-23T09:46:21;1.80;;;0.60;;
71606;SDS011;60641;53.556;9.914;2022-07-23T09:48:50;1.70;;;0.50;;
71606;SDS011;60641;53.556;9.914;2022-07-23T09:51:22;1.90;;;0.40;;
71606;SDS011;60641;53.556;9.914;2022-07-23T09:54:04;1.80;;;0.50;;
71606;SDS011;60641;53.556;9.914;2022-07-23T09:56:30;4.50;;;0.70;;
71606;SDS011;60641;53.556;9.914;2022-07-23T09:58:57;2.80;;;0.60;;
71606;SDS011;60641;53.556;9.914;2022-07-23T10:01:31;2.20;;;0.60;;
71606;SDS011;60641;53.556;9.914;2022-07-23T10:03:59;2.10;;;0.50;;
71606;SDS011;60641;53.556;9.914;2022-07-23T10:06:26;3.00;;;0.60;;
71606;SDS011;60641;53.556;9.914;2022-07-23T10:08:59;2.90;;;0.50;;
71606;SDS011;60641;53.556;9.914;2022-07-23T10:11:26;2.10;;;0.40;;
71606;SDS011;60641;53.556;9.914;2022-07-23T10:13:53;2.60;;;0.50;;
71606;SDS011;60641;53.556;9.914;2022-07-23T10:16:28;1.30;;;0.50;;
71606;SDS011;60641;53.556;9.914;2022-07-23T10:18:55;2.20;;;0.50;;
71606;SDS011;60641;53.556;9.914;2022-07-23T10:21:24;1.90;;;0.50;;
71606;SDS011;60641;53.556;9.914;2022-07-23T10:32:02;4.40;;;0.70;;
71606;SDS011;60641;53.556;9.914;2022-07-23T10:34:41;5.70;;;1.00;;
71606;SDS011;60641;53.556;9.914;2022-07-23T10:37:23;7.20;;;1.30;;
71606;SDS011;60641;53.556;9.914;2022-07-23T10:40:17;1.70;;;0.60;;
71606;SDS011;60641;53.556;9.914;2022-07-23T10:42:49;3.30;;;0.70;;
71606;SDS011;60641;53.556;9.914;2022-07-23T10:47:50;5.80;;;1.10;;
71606;SDS011;60641;53.556;9.914;2022-07-23T10:58:02;2.80;;;0.80;;
71606;SDS011;60641;53.556;9.914;2022-07-23T11:00:30;4.10;;;0.70;;
71606;SDS011;60641;53.556;9.914;2022-07-23T11:03:02;2.80;;;0.70;;
71606;SDS011;60641;53.556;9.914;2022-07-23T11:05:40;2.60;;;0.70;;
71606;SDS011;60641;53.556;9.914;2022-07-23T11:08:14;1.00;;;0.50;;
71606;SDS011;60641;53.556;9.914;2022-07-23T11:31:56;3.00;;;0.70;;
71606;SDS011;60641;53.556;9.914;2022-07-23T11:34:32;2.00;;;0.50;;
71606;SDS011;60641;53.556;9.914;2022-07-23T11:37:10;2.80;;;0.60;;
71606;SDS011;60641;53.556;9.914;2022-07-23T11:39:40;5.60;;;1.30;;
71606;SDS011;60641;53.556;9.914;2022-07-23T11:42:07;1.80;;;0.50;;
71606;SDS011;60641;53.556;9.914;2022-07-23T11:44:35;1.50;;;0.50;;
71606;SDS011;60641;53.556;9.914;2022-07-23T11:47:03;1.90;;;0.50;;
71606;SDS011;60641;53.556;9.914;2022-07-23T11:49:32;2.60;;;0.60;;
71606;SDS011;60641;53.556;9.914;2022-07-23T11:52:12;2.20;;;0.60;;
71606;SDS011;60641;53.556;9.914;2022-07-23T11:54:49;2.60;;;0.50;;
71606;SDS011;60641;53.556;9.914;2022-07-23T11:57:25;3.70;;;0.60;;
71606;SDS011;60641;53.556;9.914;2022-07-23T11:59:55;2.90;;;0.60;;
71606;SDS011;60641;53.556;9.914;2022-07-23T12:02:29;2.40;;;0.60;;
71606;SDS011;60641;53.556;9.914;2022-07-23T12:05:04;5.10;;;0.80;;
71606;SDS011;60641;53.556;9.914;2022-07-23T12:07:33;3.60;;;0.60;;
71606;SDS011;60641;53.556;9.914;2022-07-23T12:10:13;3.50;;;0.60;;
71606;SDS011;60641;53.556;9.914;2022-07-23T12:15:13;3.50;;;0.60;;
71606;SDS011;60641;53.556;9.914;2022-07-23T12:17:42;3.80;;;0.70;;
71606;SDS011;60641;53.556;9.914;2022-07-23T12:20:12;2.10;;;0.50;;
71606;SDS011;60641;53.556;9.914;2022-07-23T12:22:43;3.50;;;0.70;;
71606;SDS011;60641;53.556;9.914;2022-07-23T12:25:18;2.00;;;0.60;;
71606;SDS011;60641;53.556;9.914;2022-07-23T12:27:46;1.40;;;0.60;;
71606;SDS011;60641;53.556;9.914;2022-07-23T12:30:50;3.80;;;0.80;;
71606;SDS011;60641;53.556;9.914;2022-07-23T12:33:22;5.50;;;0.70;;
71606;SDS011;60641;53.556;9.914;2022-07-23T12:35:52;4.70;;;0.90;;
71606;SDS011;60641;53.556;9.914;2022-07-23T12:38:21;2.70;;;0.80;;
71606;SDS011;60641;53.556;9.914;2022-07-23T12:40:52;2.80;;;0.70;;
71606;SDS011;60641;53.556;9.914;2022-07-23T12:43:24;4.20;;;0.80;;
71606;SDS011;60641;53.556;9.914;2022-07-23T12:45:56;3.00;;;0.60;;
71606;SDS011;60641;53.556;9.914;2022-07-23T12:51:13;3.80;;;0.80;;
71606;SDS011;60641;53.556;9.914;2022-07-23T12:53:51;4.50;;;0.90;;
71606;SDS011;60641;53.556;9.914;2022-07-23T12:56:38;5.20;;;0.90;;
71606;SDS011;60641;53.556;9.914;2022-07-23T12:59:11;4.80;;;0.80;;
71606;SDS011;60641;53.556;9.914;2022-07-23T13:01:42;3.80;;;0.80;;
71606;SDS011;60641;53.556;9.914;2022-07-23T13:04:15;4.90;;;2.00;;
71606;SDS011;60641;53.556;9.914;2022-07-23T13:06:51;2.20;;;0.90;;
71606;SDS011;60641;53.556;9.914;2022-07-23T13:09:22;3.00;;;0.70;;
71606;SDS011;60641;53.556;9.914;2022-07-23T13:11:51;4.90;;;0.70;;
71606;SDS011;60641;53.556;9.914;2022-07-23T13:14:18;5.60;;;2.00;;
71606;SDS011;60641;53.556;9.914;2022-07-23T13:16:46;2.90;;;0.80;;
71606;SDS011;60641;53.556;9.914;2022-07-23T13:19:13;5.30;;;0.70;;
71606;SDS011;60641;53.556;9.914;2022-07-23T13:21:40;3.40;;;0.60;;
71606;SDS011;60641;53.556;9.914;2022-07-23T13:24:07;2.70;;;0.50;;
71606;SDS011;60641;53.556;9.914;2022-07-23T13:26:34;2.00;;;0.60;;
71606;SDS011;60641;53.556;9.914;2022-07-23T13:29:01;2.00;;;0.50;;
71606;SDS011;60641;53.556;9.914;2022-07-23T13:31:28;1.70;;;0.70;;
71606;SDS011;60641;53.556;9.914;2022-07-23T13:33:54;1.80;;;0.50;;
71606;SDS011;60641;53.556;9.914;2022-07-23T13:36:21;4.40;;;0.80;;
71606;SDS011;60641;53.556;9.914;2022-07-23T13:38:47;3.10;;;0.80;;
71606;SDS011;60641;53.556;9.914;2022-07-23T13:41:13;2.50;;;0.60;;
71606;SDS011;60641;53.556;9.914;2022-07-23T13:43:43;2.40;;;0.60;;
71606;SDS011;60641;53.556;9.914;2022-07-23T13:46:09;1.80;;;0.60;;
71606;SDS011;60641;53.556;9.914;2022-07-23T13:48:36;2.60;;;0.80;;
71606;SDS011;60641;53.556;9.914;2022-07-23T13:51:02;2.80;;;0.70;;
71606;SDS011;60641;53.556;9.914;2022-07-23T13:53:28;2.30;;;0.50;;
71606;SDS011;60641;53.556;9.914;2022-07-23T13:55:55;2.50;;;0.60;;
71606;SDS011;60641;53.556;9.914;2022-07-23T13:58:22;3.00;;;0.60;;
71606;SDS011;60641;53.556;9.914;2022-07-23T14:00:49;2.50;;;0.60;;
71606;SDS011;60641;53.556;9.914;2022-07-23T14:03:18;3.70;;;0.70;;
71606;SDS011;60641;53.556;9.914;2022-07-23T14:05:45;4.80;;;0.70;;
71606;SDS011;60641;53.556;9.914;2022-07-23T14:08:12;3.60;;;0.80;;
71606;SDS011;60641;53.556;9.914;2022-07-23T14:10:38;1.70;;;0.60;;
71606;SDS011;60641;53.556;9.914;2022-07-23T14:13:04;2.90;;;0.50;;
71606;SDS011;60641;53.556;9.914;2022-07-23T14:15:31;2.60;;;0.50;;
71606;SDS011;60641;53.556;9.914;2022-07-23T14:17:58;2.00;;;0.60;;
71606;SDS011;60641;53.556;9.914;2022-07-23T14:20:24;3.80;;;0.70;;
71606;SDS011;60641;53.556;9.914;2022-07-23T14:22:51;2.40;;;0.70;;
71606;SDS011;60641;53.556;9.914;2022-07-23T14:25:19;3.40;;;0.70;;
71606;SDS011;60641;53.556;9.914;2022-07-23T14:27:45;2.00;;;0.60;;
71606;SDS011;60641;53.556;9.914;2022-07-23T14:30:12;1.30;;;0.50;;
71606;SDS011;60641;53.556;9.914;2022-07-23T14:32:41;2.80;;;0.70;;
71606;SDS011;60641;53.556;9.914;2022-07-23T14:35:07;2.90;;;0.80;;
71606;SDS011;60641;53.556;9.914;2022-07-23T14:37:34;2.80;;;0.60;;
71606;SDS011;60641;53.556;9.914;2022-07-23T14:40:01;4.60;;;0.70;;
71606;SDS011;60641;53.556;9.914;2022-07-23T14:42:27;3.90;;;0.90;;
71606;SDS011;60641;53.556;9.914;2022-07-23T14:44:53;3.10;;;0.50;;
71606;SDS011;60641;53.556;9.914;2022-07-23T14:47:20;2.90;;;0.70;;
71606;SDS011;60641;53.556;9.914;2022-07-23T14:49:46;2.70;;;0.60;;
71606;SDS011;60641;53.556;9.914;2022-07-23T14:52:13;2.90;;;0.70;;
71606;SDS011;60641;53.556;9.914;2022-07-23T14:54:39;4.40;;;0.80;;
71606;SDS011;60641;53.556;9.914;2022-07-23T14:57:05;2.70;;;0.70;;
71606;SDS011;60641;53.556;9.914;2022-07-23T14:59:34;2.50;;;0.70;;
71606;SDS011;60641;53.556;9.914;2022-07-23T15:02:01;3.80;;;0.60;;
71606;SDS011;60641;53.556;9.914;2022-07-23T15:04:27;3.20;;;0.70;;
71606;SDS011;60641;53.556;9.914;2022-07-23T15:06:54;3.90;;;0.60;;
71606;SDS011;60641;53.556;9.914;2022-07-23T15:09:20;2.30;;;0.60;;
71606;SDS011;60641;53.556;9.914;2022-07-23T15:11:47;3.40;;;0.80;;
71606;SDS011;60641;53.556;9.914;2022-07-23T15:14:13;4.10;;;0.70;;
71606;SDS011;60641;53.556;9.914;2022-07-23T15:16:39;3.70;;;0.60;;
71606;SDS011;60641;53.556;9.914;2022-07-23T15:19:06;2.80;;;0.90;;
71606;SDS011;60641;53.556;9.914;2022-07-23T15:21:32;4.40;;;0.70;;
71606;SDS011;60641;53.556;9.914;2022-07-23T15:23:59;3.50;;;0.60;;
71606;SDS011;60641;53.556;9.914;2022-07-23T15:26:29;3.20;;;0.80;;
71606;SDS011;60641;53.556;9.914;2022-07-23T15:28:56;4.30;;;0.80;;
71606;SDS011;60641;53.556;9.914;2022-07-23T15:31:25;5.10;;;0.80;;
71606;SDS011;60641;53.556;9.914;2022-07-23T15:33:52;4.00;;;0.80;;
71606;SDS011;60641;53.556;9.914;2022-07-23T15:36:19;2.30;;;0.60;;
71606;SDS011;60641;53.556;9.914;2022-07-23T15:38:46;3.40;;;0.80;;
71606;SDS011;60641;53.556;9.914;2022-07-23T15:41:12;2.70;;;0.70;;